sensor_id;sensor_type;location;lat;lon;timestamp;P1;durP1;ratioP1;P2;durP2;ratioP2
13704;SDS011;6924;52.122;9.952;2023-06-04T00:00:02;0.70;;;0.70;;
13704;SDS011;6924;52.122;9.952;2023-06-04T00:02:28;0.90;;;0.80;;
13704;SDS011;6924;52.122;9.952;2023-06-04T00:04:55;1.27;;;0.83;;
13704;SDS011;6924;52.122;9.952;2023-06-04T00:07:22;0.97;;;0.87;;
13704;SDS011;6924;52.122;9.952;2023-06-04T00:09:48;2.13;;;1.70;;
13704;SDS011;6924;52.122;9.952;2023-06-04T00:12:15;1.37;;;1.27;;
13704;SDS011;6924;52.122;9.952;2023-06-04T00:14:43;1.20;;;0.90;;
13704;SDS011;6924;52.122;9.952;2023-06-04T00:17:10;2.00;;;1.33;;
13704;SDS011;6924;52.122;9.952;2023-06-04T00:19:37;1.27;;;1.10;;
13704;SDS011;6924;52.122;9.952;2023-06-04T00:22:05;1.37;;;1.20;;
13704;SDS011;6924;52.122;9.952;2023-06-04T00:24:32;2.37;;;1.27;;
13704;SDS011;6924;52.122;9.952;2023-06-04T00:26:58;1.77;;;0.90;;
13704;SDS011;6924;52.122;9.952;2023-06-04T00:29:24;1.07;;;0.97;;
13704;SDS011;6924;52.122;9.952;2023-06-04T00:31:52;0.83;;;0.83;;
13704;SDS011;6924;52.122;9.952;2023-06-04T00:34:18;1.60;;;1.30;;
13704;SDS011;6924;52.122;9.952;2023-06-04T00:36:45;1.10;;;0.80;;
13704;SDS011;6924;52.122;9.952;2023-06-04T00:39:11;1.03;;;0.83;;
13704;SDS011;6924;52.122;9.952;2023-06-04T00:41:38;0.90;;;0.87;;
13704;SDS011;6924;52.122;9.952;2023-06-04T00:44:04;1.53;;;1.07;;
13704;SDS011;6924;52.122;9.952;2023-06-04T00:46:31;2.00;;;0.80;;
13704;SDS011;6924;52.122;9.952;2023-06-04T00:48:59;1.40;;;1.07;;
13704;SDS011;6924;52.122;9.952;2023-06-04T00:51:26;1.30;;;1.20;;
13704;SDS011;6924;52.122;9.952;2023-06-04T00:53:56;2.40;;;1.10;;
13704;SDS011;6924;52.122;9.952;2023-06-04T00:56:23;0.90;;;0.80;;
13704;SDS011;6924;52.122;9.952;2023-06-04T00:58:50;1.10;;;1.00;;
13704;SDS011;6924;52.122;9.952;2023-06-04T01:01:20;1.90;;;0.77;;
13704;SDS011;6924;52.122;9.952;2023-06-04T01:03:52;1.00;;;0.90;;
13704;SDS011;6924;52.122;9.952;2023-06-04T01:06:24;1.10;;;0.90;;
13704;SDS011;6924;52.122;9.952;2023-06-04T01:08:55;1.27;;;1.03;;
13704;SDS011;6924;52.122;9.952;2023-06-04T01:11:31;2.10;;;1.47;;
13704;SDS011;6924;52.122;9.952;2023-06-04T01:13:59;1.10;;;1.00;;
13704;SDS011;6924;52.122;9.952;2023-06-04T01:16:26;1.47;;;1.00;;
13704;SDS011;6924;52.122;9.952;2023-06-04T01:18:56;1.40;;;1.30;;
13704;SDS011;6924;52.122;9.952;2023-06-04T01:21:28;1.13;;;0.90;;
13704;SDS011;6924;52.122;9.952;2023-06-04T01:23:58;1.47;;;0.70;;
13704;SDS011;6924;52.122;9.952;2023-06-04T01:26:27;0.70;;;0.70;;
13704;SDS011;6924;52.122;9.952;2023-06-04T01:28:55;0.90;;;0.70;;
13704;SDS011;6924;52.122;9.952;2023-06-04T01:31:23;0.70;;;0.70;;
13704;SDS011;6924;52.122;9.952;2023-06-04T01:33:50;1.23;;;0.60;;
13704;SDS011;6924;52.122;9.952;2023-06-04T01:36:17;0.53;;;0.53;;
13704;SDS011;6924;52.122;9.952;2023-06-04T01:38:45;0.83;;;0.63;;
13704;SDS011;6924;52.122;9.952;2023-06-04T01:41:12;0.50;;;0.50;;
13704;SDS011;6924;52.122;9.952;2023-06-04T01:43:38;0.67;;;0.60;;
13704;SDS011;6924;52.122;9.952;2023-06-04T01:46:05;1.60;;;1.07;;
13704;SDS011;6924;52.122;9.952;2023-06-04T01:48:31;0.67;;;0.67;;
13704;SDS011;6924;52.122;9.952;2023-06-04T01:50:58;1.07;;;0.90;;
13704;SDS011;6924;52.122;9.952;2023-06-04T01:53:25;0.83;;;0.77;;
13704;SDS011;6924;52.122;9.952;2023-06-04T01:55:53;1.77;;;0.90;;
13704;SDS011;6924;52.122;9.952;2023-06-04T01:58:19;1.40;;;0.73;;
13704;SDS011;6924;52.122;9.952;2023-06-04T02:00:48;0.37;;;0.37;;
13704;SDS011;6924;52.122;9.952;2023-06-04T02:03:14;1.10;;;0.80;;
13704;SDS011;6924;52.122;9.952;2023-06-04T02:05:41;0.57;;;0.57;;
13704;SDS011;6924;52.122;9.952;2023-06-04T02:08:09;0.53;;;0.47;;
13704;SDS011;6924;52.122;9.952;2023-06-04T02:10:36;0.67;;;0.67;;
13704;SDS011;6924;52.122;9.952;2023-06-04T02:13:04;0.80;;;0.70;;
13704;SDS011;6924;52.122;9.952;2023-06-04T02:15:31;0.50;;;0.50;;
13704;SDS011;6924;52.122;9.952;2023-06-04T02:17:58;1.00;;;0.77;;
13704;SDS011;6924;52.122;9.952;2023-06-04T02:20:37;1.00;;;0.70;;
13704;SDS011;6924;52.122;9.952;2023-06-04T02:23:04;0.67;;;0.40;;
13704;SDS011;6924;52.122;9.952;2023-06-04T02:25:30;0.60;;;0.60;;
13704;SDS011;6924;52.122;9.952;2023-06-04T02:27:57;0.40;;;0.40;;
13704;SDS011;6924;52.122;9.952;2023-06-04T02:30:24;0.60;;;0.60;;
13704;SDS011;6924;52.122;9.952;2023-06-04T02:32:51;1.17;;;1.00;;
13704;SDS011;6924;52.122;9.952;2023-06-04T02:35:20;0.87;;;0.87;;
13704;SDS011;6924;52.122;9.952;2023-06-04T02:37:47;0.90;;;0.60;;
13704;SDS011;6924;52.122;9.952;2023-06-04T02:40:14;0.90;;;0.60;;
13704;SDS011;6924;52.122;9.952;2023-06-04T02:42:41;1.20;;;0.70;;
13704;SDS011;6924;52.122;9.952;2023-06-04T02:45:07;0.60;;;0.60;;
13704;SDS011;6924;52.122;9.952;2023-06-04T02:47:37;1.23;;;0.70;;
13704;SDS011;6924;52.122;9.952;2023-06-04T02:50:04;1.00;;;0.60;;
13704;SDS011;6924;52.122;9.952;2023-06-04T02:52:31;0.83;;;0.50;;
13704;SDS011;6924;52.122;9.952;2023-06-04T02:55:02;0.83;;;0.77;;
13704;SDS011;6924;52.122;9.952;2023-06-04T02:57:29;1.47;;;0.83;;
13704;SDS011;6924;52.122;9.952;2023-06-04T02:59:56;0.77;;;0.77;;
13704;SDS011;6924;52.122;9.952;2023-06-04T03:02:22;0.97;;;0.83;;
13704;SDS011;6924;52.122;9.952;2023-06-04T03:04:51;1.80;;;0.60;;
13704;SDS011;6924;52.122;9.952;2023-06-04T03:07:20;1.20;;;0.80;;
13704;SDS011;6924;52.122;9.952;2023-06-04T03:09:47;0.80;;;0.80;;
13704;SDS011;6924;52.122;9.952;2023-06-04T03:12:14;0.83;;;0.60;;
13704;SDS011;6924;52.122;9.952;2023-06-04T03:14:40;0.60;;;0.60;;
13704;SDS011;6924;52.122;9.952;2023-06-04T03:17:07;0.60;;;0.60;;
13704;SDS011;6924;52.122;9.952;2023-06-04T03:19:35;0.60;;;0.60;;
13704;SDS011;6924;52.122;9.952;2023-06-04T03:22:05;0.80;;;0.80;;
13704;SDS011;6924;52.122;9.952;2023-06-04T03:24:33;0.73;;;0.50;;
13704;SDS011;6924;52.122;9.952;2023-06-04T03:27:01;0.60;;;0.60;;
13704;SDS011;6924;52.122;9.952;2023-06-04T03:29:28;2.00;;;0.87;;
13704;SDS011;6924;52.122;9.952;2023-06-04T03:31:55;0.90;;;0.77;;
13704;SDS011;6924;52.122;9.952;2023-06-04T03:34:22;0.60;;;0.60;;
13704;SDS011;6924;52.122;9.952;2023-06-04T03:36:49;0.60;;;0.53;;
13704;SDS011;6924;52.122;9.952;2023-06-04T03:39:17;0.70;;;0.70;;
13704;SDS011;6924;52.122;9.952;2023-06-04T03:41:44;0.80;;;0.80;;
13704;SDS011;6924;52.122;9.952;2023-06-04T03:44:12;1.13;;;0.70;;
13704;SDS011;6924;52.122;9.952;2023-06-04T03:46:38;1.03;;;0.70;;
13704;SDS011;6924;52.122;9.952;2023-06-04T03:49:05;0.97;;;0.77;;
13704;SDS011;6924;52.122;9.952;2023-06-04T03:51:31;0.53;;;0.50;;
13704;SDS011;6924;52.122;9.952;2023-06-04T03:53:58;0.67;;;0.60;;
13704;SDS011;6924;52.122;9.952;2023-06-04T03:56:26;1.60;;;0.60;;
13704;SDS011;6924;52.122;9.952;2023-06-04T03:58:53;0.67;;;0.67;;
13704;SDS011;6924;52.122;9.952;2023-06-04T04:01:19;0.60;;;0.50;;
13704;SDS011;6924;52.122;9.952;2023-06-04T04:03:46;1.33;;;0.80;;
13704;SDS011;6924;52.122;9.952;2023-06-04T04:06:13;1.30;;;0.60;;
13704;SDS011;6924;52.122;9.952;2023-06-04T04:08:40;1.70;;;0.70;;
13704;SDS011;6924;52.122;9.952;2023-06-04T04:11:07;0.63;;;0.63;;
13704;SDS011;6924;52.122;9.952;2023-06-04T04:13:35;0.60;;;0.60;;
13704;SDS011;6924;52.122;9.952;2023-06-04T04:16:01;0.80;;;0.80;;
13704;SDS011;6924;52.122;9.952;2023-06-04T04:18:28;1.10;;;0.60;;
13704;SDS011;6924;52.122;9.952;2023-06-04T04:20:58;0.80;;;0.60;;
13704;SDS011;6924;52.122;9.952;2023-06-04T04:23:24;1.20;;;0.73;;
13704;SDS011;6924;52.122;9.952;2023-06-04T04:25:52;0.60;;;0.60;;
13704;SDS011;6924;52.122;9.952;2023-06-04T04:28:18;0.83;;;0.70;;
13704;SDS011;6924;52.122;9.952;2023-06-04T04:30:46;0.63;;;0.63;;
13704;SDS011;6924;52.122;9.952;2023-06-04T04:33:14;0.70;;;0.70;;
13704;SDS011;6924;52.122;9.952;2023-06-04T04:35:41;0.63;;;0.60;;
13704;SDS011;6924;52.122;9.952;2023-06-04T04:38:09;0.70;;;0.60;;
13704;SDS011;6924;52.122;9.952;2023-06-04T04:40:35;0.73;;;0.73;;
13704;SDS011;6924;52.122;9.952;2023-06-04T04:43:02;0.80;;;0.70;;
13704;SDS011;6924;52.122;9.952;2023-06-04T04:45:29;0.67;;;0.60;;
13704;SDS011;6924;52.122;9.952;2023-06-04T04:47:56;1.53;;;0.70;;
13704;SDS011;6924;52.122;9.952;2023-06-04T04:50:23;0.73;;;0.70;;
13704;SDS011;6924;52.122;9.952;2023-06-04T04:52:49;0.67;;;0.50;;
13704;SDS011;6924;52.122;9.952;2023-06-04T04:55:16;1.43;;;0.63;;
13704;SDS011;6924;52.122;9.952;2023-06-04T04:57:42;1.60;;;0.73;;
13704;SDS011;6924;52.122;9.952;2023-06-04T05:00:09;0.83;;;0.70;;
13704;SDS011;6924;52.122;9.952;2023-06-04T05:02:37;0.60;;;0.60;;
13704;SDS011;6924;52.122;9.952;2023-06-04T05:05:05;0.60;;;0.60;;
13704;SDS011;6924;52.122;9.952;2023-06-04T05:07:32;1.47;;;0.87;;
13704;SDS011;6924;52.122;9.952;2023-06-04T05:09:59;0.90;;;0.83;;
13704;SDS011;6924;52.122;9.952;2023-06-04T05:12:25;0.70;;;0.70;;
13704;SDS011;6924;52.122;9.952;2023-06-04T05:14:52;0.40;;;0.40;;
13704;SDS011;6924;52.122;9.952;2023-06-04T05:17:18;1.33;;;1.00;;
13704;SDS011;6924;52.122;9.952;2023-06-04T05:19:46;0.60;;;0.60;;
13704;SDS011;6924;52.122;9.952;2023-06-04T05:22:14;0.83;;;0.70;;
13704;SDS011;6924;52.122;9.952;2023-06-04T05:24:43;1.10;;;0.90;;
13704;SDS011;6924;52.122;9.952;2023-06-04T05:27:10;0.77;;;0.67;;
13704;SDS011;6924;52.122;9.952;2023-06-04T05:29:36;1.27;;;0.87;;
13704;SDS011;6924;52.122;9.952;2023-06-04T05:32:03;0.70;;;0.70;;
13704;SDS011;6924;52.122;9.952;2023-06-04T05:34:29;1.10;;;0.87;;
13704;SDS011;6924;52.122;9.952;2023-06-04T05:36:57;1.37;;;0.80;;
13704;SDS011;6924;52.122;9.952;2023-06-04T05:39:25;1.57;;;1.10;;
13704;SDS011;6924;52.122;9.952;2023-06-04T05:41:51;1.17;;;0.80;;
13704;SDS011;6924;52.122;9.952;2023-06-04T05:44:18;0.80;;;0.80;;
13704;SDS011;6924;52.122;9.952;2023-06-04T05:46:44;1.43;;;0.87;;
13704;SDS011;6924;52.122;9.952;2023-06-04T05:49:11;0.90;;;0.67;;
13704;SDS011;6924;52.122;9.952;2023-06-04T05:51:37;0.97;;;0.80;;
13704;SDS011;6924;52.122;9.952;2023-06-04T05:54:04;1.67;;;1.10;;
13704;SDS011;6924;52.122;9.952;2023-06-04T05:56:32;0.67;;;0.57;;
13704;SDS011;6924;52.122;9.952;2023-06-04T05:58:58;1.00;;;0.67;;
13704;SDS011;6924;52.122;9.952;2023-06-04T06:01:24;0.70;;;0.70;;
13704;SDS011;6924;52.122;9.952;2023-06-04T06:03:51;1.33;;;0.90;;
13704;SDS011;6924;52.122;9.952;2023-06-04T06:06:17;1.00;;;0.73;;
13704;SDS011;6924;52.122;9.952;2023-06-04T06:08:45;1.07;;;0.87;;
13704;SDS011;6924;52.122;9.952;2023-06-04T06:11:12;0.80;;;0.73;;
13704;SDS011;6924;52.122;9.952;2023-06-04T06:13:40;0.97;;;0.77;;
13704;SDS011;6924;52.122;9.952;2023-06-04T06:16:06;1.23;;;0.90;;
13704;SDS011;6924;52.122;9.952;2023-06-04T06:18:32;0.70;;;0.70;;
13704;SDS011;6924;52.122;9.952;2023-06-04T06:20:59;0.80;;;0.70;;
13704;SDS011;6924;52.122;9.952;2023-06-04T06:23:25;1.00;;;0.90;;
13704;SDS011;6924;52.122;9.952;2023-06-04T06:25:51;0.80;;;0.60;;
13704;SDS011;6924;52.122;9.952;2023-06-04T06:28:18;1.03;;;0.93;;
13704;SDS011;6924;52.122;9.952;2023-06-04T06:30:46;1.00;;;1.00;;
13704;SDS011;6924;52.122;9.952;2023-06-04T06:33:12;1.10;;;0.80;;
13704;SDS011;6924;52.122;9.952;2023-06-04T06:35:39;1.07;;;0.80;;
13704;SDS011;6924;52.122;9.952;2023-06-04T06:38:05;0.90;;;0.70;;
13704;SDS011;6924;52.122;9.952;2023-06-04T06:40:32;0.90;;;0.60;;
13704;SDS011;6924;52.122;9.952;2023-06-04T06:42:58;0.83;;;0.70;;
13704;SDS011;6924;52.122;9.952;2023-06-04T06:45:24;3.00;;;1.13;;
13704;SDS011;6924;52.122;9.952;2023-06-04T06:47:52;0.70;;;0.70;;
13704;SDS011;6924;52.122;9.952;2023-06-04T06:50:19;1.43;;;0.80;;
13704;SDS011;6924;52.122;9.952;2023-06-04T06:52:45;1.00;;;0.80;;
13704;SDS011;6924;52.122;9.952;2023-06-04T06:55:12;1.33;;;0.70;;
13704;SDS011;6924;52.122;9.952;2023-06-04T06:57:38;0.73;;;0.73;;
13704;SDS011;6924;52.122;9.952;2023-06-04T07:00:05;0.90;;;0.80;;
13704;SDS011;6924;52.122;9.952;2023-06-04T07:02:33;0.93;;;0.83;;
13704;SDS011;6924;52.122;9.952;2023-06-04T07:05:01;0.70;;;0.70;;
13704;SDS011;6924;52.122;9.952;2023-06-04T07:07:27;1.00;;;0.90;;
13704;SDS011;6924;52.122;9.952;2023-06-04T07:09:54;1.70;;;1.20;;
13704;SDS011;6924;52.122;9.952;2023-06-04T07:12:21;0.80;;;0.80;;
13704;SDS011;6924;52.122;9.952;2023-06-04T07:14:47;1.60;;;1.00;;
13704;SDS011;6924;52.122;9.952;2023-06-04T07:17:13;2.37;;;1.23;;
13704;SDS011;6924;52.122;9.952;2023-06-04T07:19:40;1.83;;;1.30;;
13704;SDS011;6924;52.122;9.952;2023-06-04T07:22:07;5.70;;;1.20;;
13704;SDS011;6924;52.122;9.952;2023-06-04T07:24:34;1.30;;;0.93;;
13704;SDS011;6924;52.122;9.952;2023-06-04T07:27:00;1.37;;;1.10;;
13704;SDS011;6924;52.122;9.952;2023-06-04T07:29:27;1.97;;;1.23;;
13704;SDS011;6924;52.122;9.952;2023-06-04T07:31:53;1.20;;;0.93;;
13704;SDS011;6924;52.122;9.952;2023-06-04T07:34:20;2.43;;;1.63;;
13704;SDS011;6924;52.122;9.952;2023-06-04T07:36:46;1.30;;;1.20;;
13704;SDS011;6924;52.122;9.952;2023-06-04T07:39:14;3.90;;;1.33;;
13704;SDS011;6924;52.122;9.952;2023-06-04T07:41:41;2.60;;;1.43;;
13704;SDS011;6924;52.122;9.952;2023-06-04T07:44:07;1.27;;;1.07;;
13704;SDS011;6924;52.122;9.952;2023-06-04T07:46:33;0.90;;;0.90;;
13704;SDS011;6924;52.122;9.952;2023-06-04T07:49:00;2.20;;;1.30;;
13704;SDS011;6924;52.122;9.952;2023-06-04T07:51:26;1.77;;;1.17;;
13704;SDS011;6924;52.122;9.952;2023-06-04T07:53:52;1.97;;;1.30;;
13704;SDS011;6924;52.122;9.952;2023-06-04T07:56:20;1.87;;;1.23;;
13704;SDS011;6924;52.122;9.952;2023-06-04T07:58:47;1.30;;;1.20;;
13704;SDS011;6924;52.122;9.952;2023-06-04T08:01:13;2.93;;;1.53;;
13704;SDS011;6924;52.122;9.952;2023-06-04T08:03:40;2.27;;;1.60;;
13704;SDS011;6924;52.122;9.952;2023-06-04T08:06:07;3.20;;;2.00;;
13704;SDS011;6924;52.122;9.952;2023-06-04T08:08:33;2.47;;;2.00;;
13704;SDS011;6924;52.122;9.952;2023-06-04T08:10:59;3.43;;;2.03;;
13704;SDS011;6924;52.122;9.952;2023-06-04T08:13:27;3.47;;;1.87;;
13704;SDS011;6924;52.122;9.952;2023-06-04T08:15:54;1.90;;;1.70;;
13704;SDS011;6924;52.122;9.952;2023-06-04T08:18:20;2.33;;;1.80;;
13704;SDS011;6924;52.122;9.952;2023-06-04T08:20:46;2.27;;;1.37;;
13704;SDS011;6924;52.122;9.952;2023-06-04T08:23:13;1.73;;;1.50;;
13704;SDS011;6924;52.122;9.952;2023-06-04T08:25:39;4.13;;;1.57;;
13704;SDS011;6924;52.122;9.952;2023-06-04T08:28:06;2.30;;;1.27;;
13704;SDS011;6924;52.122;9.952;2023-06-04T08:30:33;1.40;;;1.10;;
13704;SDS011;6924;52.122;9.952;2023-06-04T08:33:02;2.87;;;1.43;;
13704;SDS011;6924;52.122;9.952;2023-06-04T08:35:28;1.37;;;0.90;;
13704;SDS011;6924;52.122;9.952;2023-06-04T08:37:54;1.27;;;0.87;;
13704;SDS011;6924;52.122;9.952;2023-06-04T08:40:21;1.23;;;0.73;;
13704;SDS011;6924;52.122;9.952;2023-06-04T08:42:48;0.63;;;0.60;;
13704;SDS011;6924;52.122;9.952;2023-06-04T08:45:15;0.90;;;0.53;;
13704;SDS011;6924;52.122;9.952;2023-06-04T08:47:44;0.73;;;0.60;;
13704;SDS011;6924;52.122;9.952;2023-06-04T08:50:14;0.73;;;0.60;;
13704;SDS011;6924;52.122;9.952;2023-06-04T08:52:43;0.40;;;0.40;;
13704;SDS011;6924;52.122;9.952;2023-06-04T08:55:10;0.60;;;0.60;;
13704;SDS011;6924;52.122;9.952;2023-06-04T08:57:38;0.97;;;0.80;;
13704;SDS011;6924;52.122;9.952;2023-06-04T09:00:06;1.93;;;0.50;;
13704;SDS011;6924;52.122;9.952;2023-06-04T09:02:33;0.70;;;0.53;;
13704;SDS011;6924;52.122;9.952;2023-06-04T09:05:04;0.43;;;0.40;;
13704;SDS011;6924;52.122;9.952;2023-06-04T09:07:34;0.60;;;0.60;;
13704;SDS011;6924;52.122;9.952;2023-06-04T09:10:01;1.03;;;0.40;;
13704;SDS011;6924;52.122;9.952;2023-06-04T09:12:28;0.83;;;0.73;;
13704;SDS011;6924;52.122;9.952;2023-06-04T09:14:55;0.93;;;0.50;;
13704;SDS011;6924;52.122;9.952;2023-06-04T09:17:22;0.83;;;0.43;;
13704;SDS011;6924;52.122;9.952;2023-06-04T09:19:50;1.00;;;0.77;;
13704;SDS011;6924;52.122;9.952;2023-06-04T09:22:18;0.70;;;0.70;;
13704;SDS011;6924;52.122;9.952;2023-06-04T09:24:45;0.93;;;0.80;;
13704;SDS011;6924;52.122;9.952;2023-06-04T09:27:13;2.20;;;0.40;;
13704;SDS011;6924;52.122;9.952;2023-06-04T09:29:48;0.50;;;0.50;;
13704;SDS011;6924;52.122;9.952;2023-06-04T09:32:20;0.83;;;0.60;;
13704;SDS011;6924;52.122;9.952;2023-06-04T09:34:48;1.03;;;0.90;;
13704;SDS011;6924;52.122;9.952;2023-06-04T09:37:15;0.97;;;0.60;;
13704;SDS011;6924;52.122;9.952;2023-06-04T09:39:43;0.60;;;0.60;;
13704;SDS011;6924;52.122;9.952;2023-06-04T09:42:18;0.70;;;0.50;;
13704;SDS011;6924;52.122;9.952;2023-06-04T09:44:45;1.30;;;0.57;;
13704;SDS011;6924;52.122;9.952;2023-06-04T09:47:11;0.70;;;0.60;;
13704;SDS011;6924;52.122;9.952;2023-06-04T09:49:40;0.80;;;0.80;;
13704;SDS011;6924;52.122;9.952;2023-06-04T09:52:07;0.83;;;0.83;;
13704;SDS011;6924;52.122;9.952;2023-06-04T09:54:35;0.80;;;0.60;;
13704;SDS011;6924;52.122;9.952;2023-06-04T09:57:04;0.97;;;0.70;;
13704;SDS011;6924;52.122;9.952;2023-06-04T09:59:32;1.03;;;0.70;;
13704;SDS011;6924;52.122;9.952;2023-06-04T10:02:05;0.50;;;0.50;;
13704;SDS011;6924;52.122;9.952;2023-06-04T10:04:34;0.70;;;0.60;;
13704;SDS011;6924;52.122;9.952;2023-06-04T10:07:02;0.40;;;0.40;;
13704;SDS011;6924;52.122;9.952;2023-06-04T10:09:30;1.10;;;0.70;;
13704;SDS011;6924;52.122;9.952;2023-06-04T10:11:58;1.10;;;0.90;;
13704;SDS011;6924;52.122;9.952;2023-06-04T10:14:30;1.10;;;0.77;;
13704;SDS011;6924;52.122;9.952;2023-06-04T10:17:02;0.57;;;0.40;;
13704;SDS011;6924;52.122;9.952;2023-06-04T10:19:31;0.73;;;0.70;;
13704;SDS011;6924;52.122;9.952;2023-06-04T10:21:57;0.97;;;0.97;;
13704;SDS011;6924;52.122;9.952;2023-06-04T10:24:24;1.20;;;0.90;;
13704;SDS011;6924;52.122;9.952;2023-06-04T10:26:51;0.60;;;0.60;;
13704;SDS011;6924;52.122;9.952;2023-06-04T10:29:20;0.90;;;0.80;;
13704;SDS011;6924;52.122;9.952;2023-06-04T10:31:52;0.83;;;0.57;;
13704;SDS011;6924;52.122;9.952;2023-06-04T10:34:20;1.47;;;0.87;;
13704;SDS011;6924;52.122;9.952;2023-06-04T10:36:47;0.90;;;0.50;;
13704;SDS011;6924;52.122;9.952;2023-06-04T10:39:14;0.63;;;0.50;;
13704;SDS011;6924;52.122;9.952;2023-06-04T10:41:56;0.87;;;0.67;;
13704;SDS011;6924;52.122;9.952;2023-06-04T10:44:24;0.97;;;0.70;;
13704;SDS011;6924;52.122;9.952;2023-06-04T10:46:52;1.57;;;0.60;;
13704;SDS011;6924;52.122;9.952;2023-06-04T10:49:25;0.97;;;0.90;;
13704;SDS011;6924;52.122;9.952;2023-06-04T10:51:52;1.03;;;0.73;;
13704;SDS011;6924;52.122;9.952;2023-06-04T10:54:22;1.20;;;0.60;;
13704;SDS011;6924;52.122;9.952;2023-06-04T10:56:49;1.30;;;0.70;;
13704;SDS011;6924;52.122;9.952;2023-06-04T10:59:16;0.53;;;0.50;;
13704;SDS011;6924;52.122;9.952;2023-06-04T11:01:44;0.70;;;0.67;;
13704;SDS011;6924;52.122;9.952;2023-06-04T11:04:19;0.87;;;0.73;;
13704;SDS011;6924;52.122;9.952;2023-06-04T11:06:47;2.93;;;2.10;;
13704;SDS011;6924;52.122;9.952;2023-06-04T11:09:13;1.00;;;0.70;;
13704;SDS011;6924;52.122;9.952;2023-06-04T11:11:41;0.90;;;0.70;;
13704;SDS011;6924;52.122;9.952;2023-06-04T11:14:08;0.83;;;0.83;;
13704;SDS011;6924;52.122;9.952;2023-06-04T11:16:36;1.80;;;1.53;;
13704;SDS011;6924;52.122;9.952;2023-06-04T11:19:03;0.93;;;0.77;;
13704;SDS011;6924;52.122;9.952;2023-06-04T11:21:31;1.27;;;0.80;;
13704;SDS011;6924;52.122;9.952;2023-06-04T11:24:01;0.70;;;0.70;;
13704;SDS011;6924;52.122;9.952;2023-06-04T11:26:29;1.70;;;0.83;;
13704;SDS011;6924;52.122;9.952;2023-06-04T11:28:57;0.70;;;0.67;;
13704;SDS011;6924;52.122;9.952;2023-06-04T11:31:23;1.63;;;0.80;;
13704;SDS011;6924;52.122;9.952;2023-06-04T11:33:50;0.97;;;0.80;;
13704;SDS011;6924;52.122;9.952;2023-06-04T11:36:23;0.83;;;0.60;;
13704;SDS011;6924;52.122;9.952;2023-06-04T11:38:55;0.70;;;0.70;;
13704;SDS011;6924;52.122;9.952;2023-06-04T11:41:22;0.57;;;0.57;;
13704;SDS011;6924;52.122;9.952;2023-06-04T11:43:49;0.73;;;0.60;;
13704;SDS011;6924;52.122;9.952;2023-06-04T11:46:16;0.67;;;0.67;;
13704;SDS011;6924;52.122;9.952;2023-06-04T11:48:42;0.80;;;0.50;;
13704;SDS011;6924;52.122;9.952;2023-06-04T11:51:10;1.00;;;0.73;;
13704;SDS011;6924;52.122;9.952;2023-06-04T11:53:36;0.80;;;0.70;;
13704;SDS011;6924;52.122;9.952;2023-06-04T11:56:04;0.80;;;0.50;;
13704;SDS011;6924;52.122;9.952;2023-06-04T11:58:31;0.83;;;0.63;;
13704;SDS011;6924;52.122;9.952;2023-06-04T12:00:59;1.10;;;0.90;;
13704;SDS011;6924;52.122;9.952;2023-06-04T12:03:33;1.30;;;0.77;;
13704;SDS011;6924;52.122;9.952;2023-06-04T12:06:08;0.50;;;0.50;;
13704;SDS011;6924;52.122;9.952;2023-06-04T12:08:44;0.50;;;0.50;;
13704;SDS011;6924;52.122;9.952;2023-06-04T12:11:23;0.47;;;0.47;;
13704;SDS011;6924;52.122;9.952;2023-06-04T12:13:54;2.53;;;0.70;;
13704;SDS011;6924;52.122;9.952;2023-06-04T12:16:21;0.43;;;0.43;;
13704;SDS011;6924;52.122;9.952;2023-06-04T12:18:48;0.70;;;0.70;;
13704;SDS011;6924;52.122;9.952;2023-06-04T12:21:20;1.07;;;0.70;;
13704;SDS011;6924;52.122;9.952;2023-06-04T12:23:51;0.70;;;0.63;;
13704;SDS011;6924;52.122;9.952;2023-06-04T12:26:33;1.03;;;0.67;;
13704;SDS011;6924;52.122;9.952;2023-06-04T12:29:08;1.03;;;0.87;;
13704;SDS011;6924;52.122;9.952;2023-06-04T12:31:36;1.07;;;0.80;;
13704;SDS011;6924;52.122;9.952;2023-06-04T12:34:02;0.70;;;0.70;;
13704;SDS011;6924;52.122;9.952;2023-06-04T12:36:29;1.27;;;0.70;;
13704;SDS011;6924;52.122;9.952;2023-06-04T12:38:58;1.10;;;0.90;;
13704;SDS011;6924;52.122;9.952;2023-06-04T12:41:25;1.10;;;0.70;;
13704;SDS011;6924;52.122;9.952;2023-06-04T12:43:53;0.40;;;0.40;;
13704;SDS011;6924;52.122;9.952;2023-06-04T12:46:20;0.60;;;0.60;;
13704;SDS011;6924;52.122;9.952;2023-06-04T12:48:46;1.23;;;0.70;;
13704;SDS011;6924;52.122;9.952;2023-06-04T12:51:13;0.60;;;0.60;;
13704;SDS011;6924;52.122;9.952;2023-06-04T12:53:40;1.37;;;0.73;;
13704;SDS011;6924;52.122;9.952;2023-06-04T12:56:07;0.90;;;0.80;;
13704;SDS011;6924;52.122;9.952;2023-06-04T12:58:34;0.67;;;0.67;;
13704;SDS011;6924;52.122;9.952;2023-06-04T13:01:02;0.57;;;0.57;;
13704;SDS011;6924;52.122;9.952;2023-06-04T13:03:29;0.80;;;0.47;;
13704;SDS011;6924;52.122;9.952;2023-06-04T13:05:56;0.80;;;0.70;;
13704;SDS011;6924;52.122;9.952;2023-06-04T13:08:23;0.73;;;0.53;;
13704;SDS011;6924;52.122;9.952;2023-06-04T13:10:50;0.43;;;0.40;;
13704;SDS011;6924;52.122;9.952;2023-06-04T13:13:18;1.23;;;0.60;;
13704;SDS011;6924;52.122;9.952;2023-06-04T13:15:44;0.57;;;0.50;;
13704;SDS011;6924;52.122;9.952;2023-06-04T13:18:13;1.30;;;0.60;;
13704;SDS011;6924;52.122;9.952;2023-06-04T13:20:40;1.33;;;0.80;;
13704;SDS011;6924;52.122;9.952;2023-06-04T13:23:07;0.50;;;0.47;;
13704;SDS011;6924;52.122;9.952;2023-06-04T13:25:34;0.53;;;0.50;;
13704;SDS011;6924;52.122;9.952;2023-06-04T13:28:01;0.93;;;0.80;;
13704;SDS011;6924;52.122;9.952;2023-06-04T13:30:28;0.50;;;0.50;;
13704;SDS011;6924;52.122;9.952;2023-06-04T13:32:55;1.07;;;0.47;;
13704;SDS011;6924;52.122;9.952;2023-06-04T13:35:24;0.80;;;0.77;;
13704;SDS011;6924;52.122;9.952;2023-06-04T13:37:51;0.50;;;0.47;;
13704;SDS011;6924;52.122;9.952;2023-06-04T13:40:17;2.37;;;1.00;;
13704;SDS011;6924;52.122;9.952;2023-06-04T13:42:43;0.70;;;0.50;;
13704;SDS011;6924;52.122;9.952;2023-06-04T13:45:11;0.63;;;0.60;;
13704;SDS011;6924;52.122;9.952;2023-06-04T13:47:37;0.70;;;0.70;;
13704;SDS011;6924;52.122;9.952;2023-06-04T13:50:04;1.63;;;0.60;;
13704;SDS011;6924;52.122;9.952;2023-06-04T13:52:33;0.50;;;0.40;;
13704;SDS011;6924;52.122;9.952;2023-06-04T13:54:59;0.50;;;0.50;;
13704;SDS011;6924;52.122;9.952;2023-06-04T13:57:26;0.70;;;0.70;;
13704;SDS011;6924;52.122;9.952;2023-06-04T13:59:54;0.63;;;0.47;;
13704;SDS011;6924;52.122;9.952;2023-06-04T14:02:20;0.40;;;0.40;;
13704;SDS011;6924;52.122;9.952;2023-06-04T14:04:47;0.50;;;0.50;;
13704;SDS011;6924;52.122;9.952;2023-06-04T14:07:13;0.90;;;0.40;;
13704;SDS011;6924;52.122;9.952;2023-06-04T14:09:41;0.40;;;0.40;;
13704;SDS011;6924;52.122;9.952;2023-06-04T14:12:07;1.03;;;0.93;;
13704;SDS011;6924;52.122;9.952;2023-06-04T14:14:34;0.40;;;0.40;;
13704;SDS011;6924;52.122;9.952;2023-06-04T14:17:02;0.60;;;0.60;;
13704;SDS011;6924;52.122;9.952;2023-06-04T14:19:28;0.60;;;0.60;;
13704;SDS011;6924;52.122;9.952;2023-06-04T14:21:55;0.60;;;0.60;;
13704;SDS011;6924;52.122;9.952;2023-06-04T14:24:21;0.67;;;0.67;;
13704;SDS011;6924;52.122;9.952;2023-06-04T14:26:49;0.70;;;0.70;;
13704;SDS011;6924;52.122;9.952;2023-06-04T14:29:16;0.60;;;0.50;;
13704;SDS011;6924;52.122;9.952;2023-06-04T14:31:42;0.57;;;0.47;;
13704;SDS011;6924;52.122;9.952;2023-06-04T14:34:10;0.47;;;0.47;;
13704;SDS011;6924;52.122;9.952;2023-06-04T14:36:36;1.20;;;0.50;;
13704;SDS011;6924;52.122;9.952;2023-06-04T14:39:03;1.70;;;0.50;;
13704;SDS011;6924;52.122;9.952;2023-06-04T14:41:29;1.50;;;0.60;;
13704;SDS011;6924;52.122;9.952;2023-06-04T14:43:57;0.60;;;0.60;;
13704;SDS011;6924;52.122;9.952;2023-06-04T14:46:24;1.00;;;0.57;;
13704;SDS011;6924;52.122;9.952;2023-06-04T14:48:50;0.53;;;0.53;;
13704;SDS011;6924;52.122;9.952;2023-06-04T14:51:19;0.47;;;0.40;;
13704;SDS011;6924;52.122;9.952;2023-06-04T14:53:47;0.67;;;0.50;;
13704;SDS011;6924;52.122;9.952;2023-06-04T14:56:13;0.60;;;0.60;;
13704;SDS011;6924;52.122;9.952;2023-06-04T14:58:40;0.47;;;0.47;;
13704;SDS011;6924;52.122;9.952;2023-06-04T15:01:07;0.60;;;0.60;;